sensor_id;sensor_type;location;lat;lon;timestamp;P1;durP1;ratioP1;P2;durP2;ratioP2
60306;SDS011;46155;52.364;6.580;2024-01-30T04:02:35;27.13;;;23.50;;
60306;SDS011;46155;52.364;6.580;2024-01-30T04:05:00;30.43;;;25.20;;
60306;SDS011;46155;52.364;6.580;2024-01-30T04:07:25;27.43;;;22.50;;
60306;SDS011;46155;52.364;6.580;2024-01-30T04:09:50;29.10;;;25.97;;
60306;SDS011;46155;52.364;6.580;2024-01-30T04:12:16;29.23;;;26.00;;
60306;SDS011;46155;52.364;6.580;2024-01-30T04:14:41;28.90;;;25.90;;
60306;SDS011;46155;52.364;6.580;2024-01-30T04:17:07;32.37;;;26.23;;
60306;SDS011;46155;52.364;6.580;2024-01-30T04:19:32;32.87;;;26.87;;
60306;SDS011;46155;52.364;6.580;2024-01-30T04:21:57;30.97;;;27.63;;
60306;SDS011;46155;52.364;6.580;2024-01-30T04:24:22;31.03;;;27.80;;
60306;SDS011;46155;52.364;6.580;2024-01-30T04:26:48;29.23;;;25.97;;
60306;SDS011;46155;52.364;6.580;2024-01-30T04:29:13;32.93;;;29.67;;
60306;SDS011;46155;52.364;6.580;2024-01-30T04:31:38;29.97;;;26.97;;
60306;SDS011;46155;52.364;6.580;2024-01-30T04:34:04;34.57;;;28.33;;
60306;SDS011;46155;52.364;6.580;2024-01-30T04:36:29;33.53;;;29.47;;
60306;SDS011;46155;52.364;6.580;2024-01-30T04:38:54;32.80;;;29.87;;
60306;SDS011;46155;52.364;6.580;2024-01-30T04:41:20;31.47;;;27.30;;
60306;SDS011;46155;52.364;6.580;2024-01-30T04:43:45;30.13;;;26.87;;
60306;SDS011;46155;52.364;6.580;2024-01-30T04:46:11;29.23;;;26.13;;
60306;SDS011;46155;52.364;6.580;2024-01-30T04:48:36;29.27;;;26.50;;
60306;SDS011;46155;52.364;6.580;2024-01-30T04:51:01;29.70;;;26.50;;
60306;SDS011;46155;52.364;6.580;2024-01-30T04:53:29;30.67;;;27.27;;
60306;SDS011;46155;52.364;6.580;2024-01-30T04:55:55;30.47;;;27.23;;
60306;SDS011;46155;52.364;6.580;2024-01-30T04:58:21;29.30;;;26.47;;
60306;SDS011;46155;52.364;6.580;2024-01-30T05:00:46;27.17;;;24.40;;
60306;SDS011;46155;52.364;6.580;2024-01-30T05:03:16;27.90;;;24.93;;
60306;SDS011;46155;52.364;6.580;2024-01-30T05:05:42;27.93;;;24.70;;
60306;SDS011;46155;52.364;6.580;2024-01-30T05:08:07;27.27;;;24.67;;
60306;SDS011;46155;52.364;6.580;2024-01-30T05:10:33;26.30;;;23.67;;
60306;SDS011;46155;52.364;6.580;2024-01-30T05:12:58;27.73;;;25.20;;
60306;SDS011;46155;52.364;6.580;2024-01-30T05:15:23;34.13;;;27.43;;
60306;SDS011;46155;52.364;6.580;2024-01-30T05:17:49;28.83;;;25.87;;
60306;SDS011;46155;52.364;6.580;2024-01-30T05:20:14;28.00;;;25.33;;
60306;SDS011;46155;52.364;6.580;2024-01-30T05:22:39;26.37;;;23.87;;
60306;SDS011;46155;52.364;6.580;2024-01-30T05:25:09;28.93;;;26.33;;
60306;SDS011;46155;52.364;6.580;2024-01-30T05:27:35;30.03;;;27.10;;
60306;SDS011;46155;52.364;6.580;2024-01-30T05:30:00;28.10;;;25.40;;
60306;SDS011;46155;52.364;6.580;2024-01-30T05:32:25;28.07;;;25.27;;
60306;SDS011;46155;52.364;6.580;2024-01-30T05:34:51;27.30;;;24.40;;
60306;SDS011;46155;52.364;6.580;2024-01-30T05:37:16;28.33;;;25.37;;
60306;SDS011;46155;52.364;6.580;2024-01-30T05:39:42;26.93;;;24.43;;
60306;SDS011;46155;52.364;6.580;2024-01-30T05:42:08;26.80;;;24.03;;
60306;SDS011;46155;52.364;6.580;2024-01-30T05:44:33;27.47;;;24.57;;
60306;SDS011;46155;52.364;6.580;2024-01-30T05:46:58;26.73;;;23.97;;
60306;SDS011;46155;52.364;6.580;2024-01-30T05:49:24;27.83;;;24.93;;
60306;SDS011;46155;52.364;6.580;2024-01-30T05:51:49;28.50;;;22.90;;
60306;SDS011;46155;52.364;6.580;2024-01-30T05:54:14;26.43;;;23.77;;
60306;SDS011;46155;52.364;6.580;2024-01-30T05:56:39;28.20;;;24.63;;
60306;SDS011;46155;52.364;6.580;2024-01-30T05:59:05;33.67;;;23.37;;
60306;SDS011;46155;52.364;6.580;2024-01-30T06:01:30;23.47;;;21.17;;
60306;SDS011;46155;52.364;6.580;2024-01-30T06:03:55;26.13;;;23.40;;
60306;SDS011;46155;52.364;6.580;2024-01-30T06:06:21;27.63;;;24.70;;
60306;SDS011;46155;52.364;6.580;2024-01-30T06:08:46;26.17;;;22.70;;
60306;SDS011;46155;52.364;6.580;2024-01-30T06:11:11;26.13;;;23.60;;
60306;SDS011;46155;52.364;6.580;2024-01-30T06:13:37;25.47;;;22.80;;
60306;SDS011;46155;52.364;6.580;2024-01-30T06:16:02;27.00;;;24.07;;
60306;SDS011;46155;52.364;6.580;2024-01-30T06:18:28;24.80;;;22.60;;
60306;SDS011;46155;52.364;6.580;2024-01-30T06:20:55;27.13;;;24.30;;
60306;SDS011;46155;52.364;6.580;2024-01-30T06:23:20;29.20;;;25.67;;
60306;SDS011;46155;52.364;6.580;2024-01-30T06:25:46;27.30;;;24.50;;
60306;SDS011;46155;52.364;6.580;2024-01-30T06:28:11;29.90;;;27.10;;
60306;SDS011;46155;52.364;6.580;2024-01-30T06:30:36;25.10;;;22.63;;
60306;SDS011;46155;52.364;6.580;2024-01-30T06:33:02;25.00;;;22.73;;
60306;SDS011;46155;52.364;6.580;2024-01-30T06:35:27;29.63;;;26.63;;
60306;SDS011;46155;52.364;6.580;2024-01-30T06:37:53;28.90;;;24.80;;
60306;SDS011;46155;52.364;6.580;2024-01-30T06:40:19;29.17;;;26.57;;
60306;SDS011;46155;52.364;6.580;2024-01-30T06:42:44;26.20;;;23.53;;
60306;SDS011;46155;52.364;6.580;2024-01-30T06:45:09;29.60;;;27.00;;
60306;SDS011;46155;52.364;6.580;2024-01-30T06:47:35;27.50;;;25.00;;
60306;SDS011;46155;52.364;6.580;2024-01-30T06:50:00;24.93;;;22.30;;
60306;SDS011;46155;52.364;6.580;2024-01-30T06:52:27;23.77;;;21.33;;
60306;SDS011;46155;52.364;6.580;2024-01-30T06:54:52;23.00;;;20.73;;
60306;SDS011;46155;52.364;6.580;2024-01-30T06:57:17;26.53;;;23.90;;
60306;SDS011;46155;52.364;6.580;2024-01-30T06:59:43;24.77;;;21.77;;
60306;SDS011;46155;52.364;6.580;2024-01-30T07:02:11;24.40;;;21.93;;
60306;SDS011;46155;52.364;6.580;2024-01-30T07:04:37;26.93;;;22.57;;
60306;SDS011;46155;52.364;6.580;2024-01-30T07:07:02;27.87;;;24.00;;
60306;SDS011;46155;52.364;6.580;2024-01-30T07:09:30;24.93;;;21.20;;
60306;SDS011;46155;52.364;6.580;2024-01-30T07:11:55;25.30;;;22.70;;
60306;SDS011;46155;52.364;6.580;2024-01-30T07:14:23;26.90;;;24.40;;
60306;SDS011;46155;52.364;6.580;2024-01-30T07:16:49;26.23;;;23.70;;
60306;SDS011;46155;52.364;6.580;2024-01-30T07:19:15;26.50;;;23.97;;
60306;SDS011;46155;52.364;6.580;2024-01-30T07:21:40;25.00;;;22.67;;
60306;SDS011;46155;52.364;6.580;2024-01-30T07:24:05;22.87;;;20.57;;
60306;SDS011;46155;52.364;6.580;2024-01-30T07:26:31;23.57;;;21.53;;
60306;SDS011;46155;52.364;6.580;2024-01-30T07:28:56;23.70;;;20.70;;
60306;SDS011;46155;52.364;6.580;2024-01-30T07:31:22;26.43;;;20.10;;
60306;SDS011;46155;52.364;6.580;2024-01-30T07:33:48;25.07;;;22.57;;
60306;SDS011;46155;52.364;6.580;2024-01-30T07:36:13;23.77;;;21.00;;
60306;SDS011;46155;52.364;6.580;2024-01-30T07:38:39;24.60;;;22.00;;
60306;SDS011;46155;52.364;6.580;2024-01-30T07:41:05;23.90;;;20.70;;
60306;SDS011;46155;52.364;6.580;2024-01-30T07:43:30;22.73;;;20.43;;
60306;SDS011;46155;52.364;6.580;2024-01-30T07:45:56;23.83;;;21.30;;
60306;SDS011;46155;52.364;6.580;2024-01-30T07:48:21;22.70;;;20.30;;
60306;SDS011;46155;52.364;6.580;2024-01-30T07:50:46;24.97;;;18.97;;
60306;SDS011;46155;52.364;6.580;2024-01-30T07:53:12;22.60;;;20.10;;
60306;SDS011;46155;52.364;6.580;2024-01-30T07:55:37;21.27;;;19.23;;
60306;SDS011;46155;52.364;6.580;2024-01-30T07:58:02;22.00;;;19.53;;
60306;SDS011;46155;52.364;6.580;2024-01-30T08:00:29;19.53;;;17.33;;
60306;SDS011;46155;52.364;6.580;2024-01-30T08:02:55;20.20;;;18.07;;
60306;SDS011;46155;52.364;6.580;2024-01-30T08:05:21;26.80;;;19.23;;
60306;SDS011;46155;52.364;6.580;2024-01-30T08:07:47;19.87;;;17.90;;
60306;SDS011;46155;52.364;6.580;2024-01-30T08:10:13;21.33;;;19.13;;
60306;SDS011;46155;52.364;6.580;2024-01-30T08:12:39;21.73;;;18.47;;
60306;SDS011;46155;52.364;6.580;2024-01-30T08:15:05;18.53;;;16.70;;
60306;SDS011;46155;52.364;6.580;2024-01-30T08:17:30;22.33;;;17.33;;
60306;SDS011;46155;52.364;6.580;2024-01-30T08:19:56;19.20;;;17.20;;
60306;SDS011;46155;52.364;6.580;2024-01-30T08:22:21;21.27;;;16.80;;
60306;SDS011;46155;52.364;6.580;2024-01-30T08:24:46;21.07;;;15.50;;
60306;SDS011;46155;52.364;6.580;2024-01-30T08:27:12;22.93;;;17.00;;
60306;SDS011;46155;52.364;6.580;2024-01-30T08:29:37;19.07;;;16.50;;
60306;SDS011;46155;52.364;6.580;2024-01-30T08:32:03;19.10;;;17.07;;
60306;SDS011;46155;52.364;6.580;2024-01-30T08:34:30;19.17;;;15.90;;
60306;SDS011;46155;52.364;6.580;2024-01-30T08:36:55;25.73;;;16.73;;
60306;SDS011;46155;52.364;6.580;2024-01-30T08:39:20;25.63;;;16.43;;
60306;SDS011;46155;52.364;6.580;2024-01-30T08:41:46;17.97;;;16.03;;
60306;SDS011;46155;52.364;6.580;2024-01-30T08:44:11;17.90;;;15.93;;
60306;SDS011;46155;52.364;6.580;2024-01-30T08:46:37;19.83;;;15.53;;
60306;SDS011;46155;52.364;6.580;2024-01-30T08:49:02;19.80;;;15.40;;
60306;SDS011;46155;52.364;6.580;2024-01-30T08:51:29;16.10;;;14.50;;
60306;SDS011;46155;52.364;6.580;2024-01-30T08:53:54;16.43;;;14.27;;
60306;SDS011;46155;52.364;6.580;2024-01-30T08:56:20;17.83;;;15.97;;
60306;SDS011;46155;52.364;6.580;2024-01-30T08:58:45;17.73;;;15.90;;
60306;SDS011;46155;52.364;6.580;2024-01-30T09:01:10;17.33;;;15.30;;
60306;SDS011;46155;52.364;6.580;2024-01-30T09:03:36;17.37;;;14.70;;
60306;SDS011;46155;52.364;6.580;2024-01-30T09:06:07;16.23;;;14.53;;
60306;SDS011;46155;52.364;6.580;2024-01-30T09:08:33;18.37;;;14.90;;
60306;SDS011;46155;52.364;6.580;2024-01-30T09:10:58;16.17;;;14.63;;
60306;SDS011;46155;52.364;6.580;2024-01-30T09:13:24;20.77;;;15.37;;
60306;SDS011;46155;52.364;6.580;2024-01-30T09:15:49;16.03;;;14.50;;
60306;SDS011;46155;52.364;6.580;2024-01-30T09:18:14;16.57;;;14.77;;
60306;SDS011;46155;52.364;6.580;2024-01-30T09:20:40;17.07;;;15.40;;
60306;SDS011;46155;52.364;6.580;2024-01-30T09:23:05;20.77;;;14.67;;
60306;SDS011;46155;52.364;6.580;2024-01-30T09:25:30;19.93;;;14.70;;
60306;SDS011;46155;52.364;6.580;2024-01-30T09:27:55;16.80;;;15.07;;
60306;SDS011;46155;52.364;6.580;2024-01-30T09:30:21;19.60;;;14.53;;
60306;SDS011;46155;52.364;6.580;2024-01-30T09:32:46;19.27;;;14.63;;
60306;SDS011;46155;52.364;6.580;2024-01-30T09:35:12;18.73;;;14.67;;
60306;SDS011;46155;52.364;6.580;2024-01-30T09:37:37;15.37;;;13.80;;
60306;SDS011;46155;52.364;6.580;2024-01-30T09:40:02;17.63;;;14.67;;
60306;SDS011;46155;52.364;6.580;2024-01-30T09:42:34;15.30;;;13.77;;
60306;SDS011;46155;52.364;6.580;2024-01-30T09:45:01;15.27;;;13.80;;
60306;SDS011;46155;52.364;6.580;2024-01-30T09:47:30;19.73;;;14.87;;
60306;SDS011;46155;52.364;6.580;2024-01-30T09:50:06;18.10;;;14.23;;
60306;SDS011;46155;52.364;6.580;2024-01-30T09:52:33;25.60;;;15.20;;
60306;SDS011;46155;52.364;6.580;2024-01-30T09:54:59;16.03;;;14.60;;
60306;SDS011;46155;52.364;6.580;2024-01-30T09:57:25;16.13;;;14.23;;
60306;SDS011;46155;52.364;6.580;2024-01-30T09:59:51;19.27;;;14.07;;
60306;SDS011;46155;52.364;6.580;2024-01-30T10:02:17;19.43;;;13.90;;
60306;SDS011;46155;52.364;6.580;2024-01-30T10:04:43;15.30;;;13.73;;
60306;SDS011;46155;52.364;6.580;2024-01-30T10:07:09;18.17;;;14.27;;
60306;SDS011;46155;52.364;6.580;2024-01-30T10:09:36;16.20;;;13.37;;
60306;SDS011;46155;52.364;6.580;2024-01-30T10:12:02;16.50;;;14.83;;
60306;SDS011;46155;52.364;6.580;2024-01-30T10:14:28;16.73;;;14.37;;
60306;SDS011;46155;52.364;6.580;2024-01-30T10:16:55;15.07;;;12.57;;
60306;SDS011;46155;52.364;6.580;2024-01-30T10:19:20;15.17;;;13.57;;
60306;SDS011;46155;52.364;6.580;2024-01-30T10:21:46;22.63;;;13.20;;
60306;SDS011;46155;52.364;6.580;2024-01-30T10:24:11;16.30;;;13.10;;
60306;SDS011;46155;52.364;6.580;2024-01-30T10:26:38;15.03;;;13.53;;
60306;SDS011;46155;52.364;6.580;2024-01-30T10:29:04;20.03;;;13.73;;
60306;SDS011;46155;52.364;6.580;2024-01-30T10:31:30;20.00;;;13.73;;
60306;SDS011;46155;52.364;6.580;2024-01-30T10:33:55;20.90;;;13.63;;
60306;SDS011;46155;52.364;6.580;2024-01-30T10:36:20;16.53;;;13.90;;
60306;SDS011;46155;52.364;6.580;2024-01-30T10:38:53;19.83;;;14.07;;
60306;SDS011;46155;52.364;6.580;2024-01-30T10:41:24;15.23;;;13.63;;
60306;SDS011;46155;52.364;6.580;2024-01-30T10:44:02;18.43;;;14.70;;
60306;SDS011;46155;52.364;6.580;2024-01-30T10:46:33;15.07;;;13.00;;
60306;SDS011;46155;52.364;6.580;2024-01-30T10:49:00;17.07;;;12.57;;
60306;SDS011;46155;52.364;6.580;2024-01-30T10:51:28;15.90;;;12.57;;
60306;SDS011;46155;52.364;6.580;2024-01-30T10:53:54;14.53;;;12.20;;
60306;SDS011;46155;52.364;6.580;2024-01-30T10:56:21;14.37;;;12.93;;
60306;SDS011;46155;52.364;6.580;2024-01-30T10:58:48;16.37;;;14.03;;
60306;SDS011;46155;52.364;6.580;2024-01-30T11:01:14;14.20;;;12.60;;
60306;SDS011;46155;52.364;6.580;2024-01-30T11:03:40;16.57;;;12.40;;
60306;SDS011;46155;52.364;6.580;2024-01-30T11:06:10;16.67;;;12.33;;
60306;SDS011;46155;52.364;6.580;2024-01-30T11:08:36;21.00;;;12.07;;
60306;SDS011;46155;52.364;6.580;2024-01-30T11:11:01;18.63;;;12.60;;
60306;SDS011;46155;52.364;6.580;2024-01-30T11:13:29;18.87;;;14.30;;
60306;SDS011;46155;52.364;6.580;2024-01-30T11:15:55;20.37;;;12.63;;
60306;SDS011;46155;52.364;6.580;2024-01-30T11:18:24;14.87;;;12.10;;
60306;SDS011;46155;52.364;6.580;2024-01-30T11:20:50;18.43;;;13.17;;
60306;SDS011;46155;52.364;6.580;2024-01-30T11:23:15;13.30;;;11.80;;
60306;SDS011;46155;52.364;6.580;2024-01-30T11:25:43;18.33;;;13.03;;
60306;SDS011;46155;52.364;6.580;2024-01-30T11:28:14;18.97;;;13.67;;
60306;SDS011;46155;52.364;6.580;2024-01-30T11:30:43;18.37;;;13.43;;
60306;SDS011;46155;52.364;6.580;2024-01-30T11:33:13;14.90;;;12.00;;
60306;SDS011;46155;52.364;6.580;2024-01-30T11:35:40;15.77;;;12.87;;
60306;SDS011;46155;52.364;6.580;2024-01-30T11:38:07;18.53;;;12.50;;
60306;SDS011;46155;52.364;6.580;2024-01-30T11:40:34;18.73;;;13.13;;
60306;SDS011;46155;52.364;6.580;2024-01-30T11:43:01;18.67;;;13.30;;
60306;SDS011;46155;52.364;6.580;2024-01-30T11:45:27;18.87;;;13.23;;
60306;SDS011;46155;52.364;6.580;2024-01-30T11:47:53;14.50;;;12.53;;
60306;SDS011;46155;52.364;6.580;2024-01-30T11:50:19;14.60;;;13.20;;
60306;SDS011;46155;52.364;6.580;2024-01-30T11:52:45;18.67;;;12.70;;
60306;SDS011;46155;52.364;6.580;2024-01-30T11:55:10;14.33;;;11.87;;
60306;SDS011;46155;52.364;6.580;2024-01-30T11:57:36;18.37;;;12.03;;
60306;SDS011;46155;52.364;6.580;2024-01-30T12:00:04;15.60;;;11.77;;
60306;SDS011;46155;52.364;6.580;2024-01-30T12:02:35;15.13;;;11.70;;
60306;SDS011;46155;52.364;6.580;2024-01-30T12:05:04;16.17;;;10.30;;
60306;SDS011;46155;52.364;6.580;2024-01-30T12:07:34;15.67;;;10.43;;
60306;SDS011;46155;52.364;6.580;2024-01-30T12:10:00;18.27;;;10.33;;
60306;SDS011;46155;52.364;6.580;2024-01-30T12:12:26;10.37;;;9.33;;
60306;SDS011;46155;52.364;6.580;2024-01-30T12:14:52;14.20;;;9.63;;
60306;SDS011;46155;52.364;6.580;2024-01-30T12:17:28;14.63;;;9.93;;
60306;SDS011;46155;52.364;6.580;2024-01-30T12:20:05;16.23;;;10.20;;
60306;SDS011;46155;52.364;6.580;2024-01-30T12:22:32;10.13;;;9.13;;
60306;SDS011;46155;52.364;6.580;2024-01-30T12:25:10;11.70;;;9.47;;
60306;SDS011;46155;52.364;6.580;2024-01-30T12:27:37;15.27;;;10.63;;
60306;SDS011;46155;52.364;6.580;2024-01-30T12:30:09;11.90;;;9.80;;
60306;SDS011;46155;52.364;6.580;2024-01-30T12:32:36;17.90;;;10.53;;
60306;SDS011;46155;52.364;6.580;2024-01-30T12:35:02;14.50;;;11.60;;
60306;SDS011;46155;52.364;6.580;2024-01-30T12:37:29;13.47;;;10.53;;
60306;SDS011;46155;52.364;6.580;2024-01-30T12:39:55;13.37;;;10.30;;
60306;SDS011;46155;52.364;6.580;2024-01-30T12:42:20;12.63;;;10.43;;
60306;SDS011;46155;52.364;6.580;2024-01-30T12:44:49;17.23;;;10.53;;
60306;SDS011;46155;52.364;6.580;2024-01-30T12:47:14;12.67;;;9.97;;
60306;SDS011;46155;52.364;6.580;2024-01-30T12:49:41;12.27;;;9.27;;
60306;SDS011;46155;52.364;6.580;2024-01-30T12:52:10;13.20;;;8.40;;
60306;SDS011;46155;52.364;6.580;2024-01-30T12:54:37;11.67;;;8.13;;
60306;SDS011;46155;52.364;6.580;2024-01-30T12:57:02;13.43;;;7.83;;
60306;SDS011;46155;52.364;6.580;2024-01-30T12:59:28;7.87;;;7.07;;
60306;SDS011;46155;52.364;6.580;2024-01-30T13:01:53;11.47;;;7.30;;
60306;SDS011;46155;52.364;6.580;2024-01-30T13:04:18;7.83;;;7.03;;
60306;SDS011;46155;52.364;6.580;2024-01-30T13:06:44;9.47;;;7.93;;
60306;SDS011;46155;52.364;6.580;2024-01-30T13:09:09;11.27;;;7.37;;
60306;SDS011;46155;52.364;6.580;2024-01-30T13:11:34;8.07;;;7.23;;
60306;SDS011;46155;52.364;6.580;2024-01-30T13:14:00;9.80;;;7.33;;
60306;SDS011;46155;52.364;6.580;2024-01-30T13:16:26;9.00;;;6.50;;
60306;SDS011;46155;52.364;6.580;2024-01-30T13:18:51;9.33;;;6.50;;
60306;SDS011;46155;52.364;6.580;2024-01-30T13:21:16;10.20;;;6.43;;
60306;SDS011;46155;52.364;6.580;2024-01-30T13:23:42;9.77;;;6.37;;
60306;SDS011;46155;52.364;6.580;2024-01-30T13:26:08;8.77;;;6.57;;
60306;SDS011;46155;52.364;6.580;2024-01-30T13:28:33;7.50;;;6.23;;
60306;SDS011;46155;52.364;6.580;2024-01-30T13:30:58;7.50;;;6.80;;
60306;SDS011;46155;52.364;6.580;2024-01-30T13:33:24;7.47;;;6.40;;
60306;SDS011;46155;52.364;6.580;2024-01-30T13:35:49;11.67;;;6.17;;
60306;SDS011;46155;52.364;6.580;2024-01-30T13:38:15;10.77;;;6.43;;
60306;SDS011;46155;52.364;6.580;2024-01-30T13:40:40;8.17;;;6.00;;
60306;SDS011;46155;52.364;6.580;2024-01-30T13:43:06;12.50;;;7.10;;
60306;SDS011;46155;52.364;6.580;2024-01-30T13:45:31;8.73;;;5.40;;
60306;SDS011;46155;52.364;6.580;2024-01-30T13:47:56;10.93;;;6.07;;
60306;SDS011;46155;52.364;6.580;2024-01-30T13:50:22;7.60;;;6.20;;
60306;SDS011;46155;52.364;6.580;2024-01-30T13:52:47;10.97;;;5.90;;
60306;SDS011;46155;52.364;6.580;2024-01-30T13:55:13;8.30;;;5.43;;
60306;SDS011;46155;52.364;6.580;2024-01-30T13:57:38;8.53;;;5.53;;
60306;SDS011;46155;52.364;6.580;2024-01-30T14:00:03;6.10;;;5.60;;
60306;SDS011;46155;52.364;6.580;2024-01-30T14:02:32;6.33;;;5.83;;
60306;SDS011;46155;52.364;6.580;2024-01-30T14:04:57;6.47;;;5.60;;
60306;SDS011;46155;52.364;6.580;2024-01-30T14:07:23;6.23;;;5.27;;
60306;SDS011;46155;52.364;6.580;2024-01-30T14:09:48;6.03;;;5.53;;
60306;SDS011;46155;52.364;6.580;2024-01-30T14:12:15;6.57;;;5.97;;
60306;SDS011;46155;52.364;6.580;2024-01-30T14:14:40;8.70;;;5.80;;
60306;SDS011;46155;52.364;6.580;2024-01-30T14:17:06;7.57;;;6.47;;
60306;SDS011;46155;52.364;6.580;2024-01-30T14:19:34;6.33;;;5.83;;
60306;SDS011;46155;52.364;6.580;2024-01-30T14:22:00;7.07;;;6.27;;
60306;SDS011;46155;52.364;6.580;2024-01-30T14:24:26;7.40;;;6.10;;
60306;SDS011;46155;52.364;6.580;2024-01-30T14:26:52;7.67;;;6.70;;
60306;SDS011;46155;52.364;6.580;2024-01-30T14:29:17;8.00;;;6.03;;
60306;SDS011;46155;52.364;6.580;2024-01-30T14:31:43;9.53;;;6.23;;
60306;SDS011;46155;52.364;6.580;2024-01-30T14:34:08;6.80;;;6.27;;
60306;SDS011;46155;52.364;6.580;2024-01-30T14:36:35;10.40;;;6.60;;
60306;SDS011;46155;52.364;6.580;2024-01-30T14:39:01;12.33;;;6.70;;
60306;SDS011;46155;52.364;6.580;2024-01-30T14:41:28;6.87;;;6.27;;
60306;SDS011;46155;52.364;6.580;2024-01-30T14:43:53;7.47;;;6.73;;
60306;SDS011;46155;52.364;6.580;2024-01-30T14:46:18;10.53;;;7.30;;
60306;SDS011;46155;52.364;6.580;2024-01-30T14:48:44;10.10;;;7.60;;
60306;SDS011;46155;52.364;6.580;2024-01-30T14:51:09;6.50;;;5.90;;
60306;SDS011;46155;52.364;6.580;2024-01-30T14:53:34;7.43;;;6.47;;
60306;SDS011;46155;52.364;6.580;2024-01-30T14:56:00;9.53;;;7.53;;
60306;SDS011;46155;52.364;6.580;2024-01-30T14:58:27;9.40;;;7.70;;
60306;SDS011;46155;52.364;6.580;2024-01-30T15:00:52;8.50;;;6.87;;
60306;SDS011;46155;52.364;6.580;2024-01-30T15:03:18;7.97;;;7.27;;
60306;SDS011;46155;52.364;6.580;2024-01-30T15:05:44;7.33;;;6.67;;
60306;SDS011;46155;52.364;6.580;2024-01-30T15:08:09;11.13;;;6.40;;
60306;SDS011;46155;52.364;6.580;2024-01-30T15:10:34;7.77;;;7.17;;
60306;SDS011;46155;52.364;6.580;2024-01-30T15:13:00;7.57;;;6.33;;
60306;SDS011;46155;52.364;6.580;2024-01-30T15:15:25;19.43;;;7.20;;
60306;SDS011;46155;52.364;6.580;2024-01-30T15:17:51;7.87;;;7.20;;
60306;SDS011;46155;52.364;6.580;2024-01-30T15:20:16;9.83;;;6.47;;
60306;SDS011;46155;52.364;6.580;2024-01-30T15:22:43;9.07;;;7.10;;
60306;SDS011;46155;52.364;6.580;2024-01-30T15:25:10;8.97;;;6.90;;
60306;SDS011;46155;52.364;6.580;2024-01-30T15:27:35;7.70;;;7.00;;
60306;SDS011;46155;52.364;6.580;2024-01-30T15:30:01;8.63;;;6.93;;
60306;SDS011;46155;52.364;6.580;2024-01-30T15:32:26;7.23;;;6.53;;
60306;SDS011;46155;52.364;6.580;2024-01-30T15:34:52;7.27;;;6.70;;
60306;SDS011;46155;52.364;6.580;2024-01-30T15:37:17;9.43;;;7.30;;
60306;SDS011;46155;52.364;6.580;2024-01-30T15:39:43;10.57;;;6.40;;
60306;SDS011;46155;52.364;6.580;2024-01-30T15:42:09;6.63;;;6.23;;
60306;SDS011;46155;52.364;6.580;2024-01-30T15:44:34;7.13;;;6.50;;
60306;SDS011;46155;52.364;6.580;2024-01-30T15:46:59;7.17;;;6.77;;
60306;SDS011;46155;52.364;6.580;2024-01-30T15:49:25;6.97;;;6.43;;
60306;SDS011;46155;52.364;6.580;2024-01-30T15:51:50;8.27;;;7.50;;
60306;SDS011;46155;52.364;6.580;2024-01-30T15:54:16;8.40;;;7.70;;
60306;SDS011;46155;52.364;6.580;2024-01-30T15:56:42;8.93;;;8.23;;
60306;SDS011;46155;52.364;6.580;2024-01-30T15:59:08;8.23;;;7.47;;
60306;SDS011;46155;52.364;6.580;2024-01-30T16:01:33;9.20;;;8.40;;
60306;SDS011;46155;52.364;6.580;2024-01-30T16:03:59;9.10;;;8.20;;
60306;SDS011;46155;52.364;6.580;2024-01-30T16:06:24;8.90;;;8.00;;
60306;SDS011;46155;52.364;6.580;2024-01-30T16:08:49;9.23;;;8.63;;
60306;SDS011;46155;52.364;6.580;2024-01-30T16:11:16;8.87;;;8.37;;
60306;SDS011;46155;52.364;6.580;2024-01-30T16:13:42;9.53;;;8.87;;
60306;SDS011;46155;52.364;6.580;2024-01-30T16:16:07;9.80;;;9.00;;
60306;SDS011;46155;52.364;6.580;2024-01-30T16:18:33;8.97;;;8.47;;
60306;SDS011;46155;52.364;6.580;2024-01-30T16:20:59;9.57;;;8.67;;
60306;SDS011;46155;52.364;6.580;2024-01-30T16:23:25;10.73;;;9.73;;
60306;SDS011;46155;52.364;6.580;2024-01-30T16:25:52;9.73;;;8.77;;
60306;SDS011;46155;52.364;6.580;2024-01-30T16:28:17;9.40;;;8.50;;
60306;SDS011;46155;52.364;6.580;2024-01-30T16:30:43;12.13;;;11.00;;
60306;SDS011;46155;52.364;6.580;2024-01-30T16:33:08;11.03;;;10.13;;
60306;SDS011;46155;52.364;6.580;2024-01-30T16:35:33;13.63;;;12.27;;
60306;SDS011;46155;52.364;6.580;2024-01-30T16:38:00;13.10;;;12.10;;
60306;SDS011;46155;52.364;6.580;2024-01-30T16:40:25;14.27;;;13.07;;
60306;SDS011;46155;52.364;6.580;2024-01-30T16:42:50;14.57;;;13.57;;
60306;SDS011;46155;52.364;6.580;2024-01-30T16:45:16;16.87;;;15.57;;
60306;SDS011;46155;52.364;6.580;2024-01-30T16:47:41;17.97;;;16.67;;
60306;SDS011;46155;52.364;6.580;2024-01-30T16:50:08;20.57;;;19.17;;
60306;SDS011;46155;52.364;6.580;2024-01-30T16:52:33;24.27;;;22.50;;
60306;SDS011;46155;52.364;6.580;2024-01-30T16:54:58;18.77;;;17.47;;
60306;SDS011;46155;52.364;6.580;2024-01-30T16:57:24;21.13;;;19.57;;
60306;SDS011;46155;52.364;6.580;2024-01-30T16:59:49;21.10;;;19.33;;
60306;SDS011;46155;52.364;6.580;2024-01-30T17:02:14;21.20;;;19.70;;
60306;SDS011;46155;52.364;6.580;2024-01-30T17:04:40;21.87;;;20.07;;
60306;SDS011;46155;52.364;6.580;2024-01-30T17:07:05;25.03;;;22.97;;
60306;SDS011;46155;52.364;6.580;2024-01-30T17:09:30;23.17;;;20.93;;
60306;SDS011;46155;52.364;6.580;2024-01-30T17:11:57;21.83;;;20.13;;
60306;SDS011;46155;52.364;6.580;2024-01-30T17:14:25;22.53;;;20.73;;
60306;SDS011;46155;52.364;6.580;2024-01-30T17:16:51;21.87;;;20.33;;
60306;SDS011;46155;52.364;6.580;2024-01-30T17:19:17;24.13;;;22.53;;
60306;SDS011;46155;52.364;6.580;2024-01-30T17:21:43;24.00;;;21.90;;
60306;SDS011;46155;52.364;6.580;2024-01-30T17:24:10;23.63;;;22.03;;
60306;SDS011;46155;52.364;6.580;2024-01-30T17:26:36;24.73;;;22.93;;
60306;SDS011;46155;52.364;6.580;2024-01-30T17:29:01;25.37;;;23.57;;
60306;SDS011;46155;52.364;6.580;2024-01-30T17:31:27;23.57;;;21.63;;
60306;SDS011;46155;52.364;6.580;2024-01-30T17:33:52;23.17;;;21.33;;
60306;SDS011;46155;52.364;6.580;2024-01-30T17:36:17;25.57;;;23.60;;
60306;SDS011;46155;52.364;6.580;2024-01-30T17:38:43;24.63;;;22.70;;
60306;SDS011;46155;52.364;6.580;2024-01-30T17:41:09;24.13;;;22.43;;
60306;SDS011;46155;52.364;6.580;2024-01-30T17:43:34;26.87;;;24.83;;
60306;SDS011;46155;52.364;6.580;2024-01-30T17:45:59;24.27;;;22.47;;
60306;SDS011;46155;52.364;6.580;2024-01-30T17:48:25;23.43;;;21.67;;
60306;SDS011;46155;52.364;6.580;2024-01-30T17:50:50;22.20;;;20.50;;
60306;SDS011;46155;52.364;6.580;2024-01-30T17:53:15;23.63;;;21.63;;
60306;SDS011;46155;52.364;6.580;2024-01-30T17:55:41;24.97;;;22.80;;
60306;SDS011;46155;52.364;6.580;2024-01-30T17:58:06;23.10;;;21.03;;
60306;SDS011;46155;52.364;6.580;2024-01-30T18:00:32;24.77;;;22.93;;
60306;SDS011;46155;52.364;6.580;2024-01-30T18:02:59;25.97;;;24.07;;
60306;SDS011;46155;52.364;6.580;2024-01-30T18:05:26;24.33;;;22.23;;
60306;SDS011;46155;52.364;6.580;2024-01-30T18:07:51;27.13;;;24.87;;
60306;SDS011;46155;52.364;6.580;2024-01-30T18:10:16;27.27;;;24.83;;
60306;SDS011;46155;52.364;6.580;2024-01-30T18:12:45;25.57;;;23.57;;
60306;SDS011;46155;52.364;6.580;2024-01-30T18:15:10;26.80;;;24.83;;
60306;SDS011;46155;52.364;6.580;2024-01-30T18:17:36;28.47;;;26.37;;
60306;SDS011;46155;52.364;6.580;2024-01-30T18:20:02;27.47;;;25.37;;
60306;SDS011;46155;52.364;6.580;2024-01-30T18:22:30;29.20;;;26.93;;